Boyds, Washington
Current Conditions -  °F | °C
As of 1:53 PM on Sunday 23 Nov 2014 (Local Time) from KOMK Reporting Station
Clear Clear  
Wind Chill: 36°   Ceiling: Unl
Heat Index: 41°   Visibility: 10mi
Dew Point: 34°   Wind: 7mph
Humidity: 76%   Direction: 190°S
Pressure: 29.98"   Gusts: NA
Location:  48.82°N, 118.18°W
Report Text: KOMK 232153Z AUTO 19006KT 10SM CLR 05/01 A2998 RMK AO2 SLP164 T00500011
Loading
Personal Weather Stations






























Interactive Weather Map New forecast layout! Learn more

10-Day Weather Forecast

Advertisements
Track Severe Weather on mobile